Time;durP1;ratioP1;P1;durP2;ratioP2;P2;SDS_P1;SDS_P2;PMS_P1;PMS_P2;Temp;Humidity;BMP_temperature;BMP_pressure;BME280_temperature;BME280_humidity;BME280_pressure;Samples;Min_cycle;Max_cycle;Signal;HPM_P1;HPM_P2
2022/04/10 00:00:51;;;;;;;3.17;0.88;;;16.20;44.00;15.30;101186.00;;;;5046221;28;20078;-69
2022/04/10 00:03:37;;;;;;;2.75;0.77;;;16.20;44.10;15.30;101184.00;;;;5025921;28;20409;-69
2022/04/10 00:06:26;;;;;;;1.20;0.60;;;16.20;44.00;15.30;101181.00;;;;5052826;28;20068;-69
2022/04/10 00:09:13;;;;;;;1.55;0.75;;;16.20;43.90;15.30;101178.00;;;;5040441;28;20041;-69
2022/04/10 00:11:59;;;;;;;1.52;0.63;;;16.10;43.90;15.30;101195.00;;;;5044278;28;20068;-69
2022/04/10 00:14:45;;;;;;;2.25;0.55;;;16.20;44.00;15.30;101193.00;;;;5041839;28;20044;-69
2022/04/10 00:17:32;;;;;;;0.95;0.60;;;16.20;44.00;15.30;101199.00;;;;5043918;28;20041;-69
2022/04/10 00:20:18;;;;;;;3.25;0.90;;;16.20;44.00;15.30;101201.00;;;;5046484;28;21935;-69
2022/04/10 00:23:04;;;;;;;2.92;0.77;;;16.20;43.90;15.30;101211.00;;;;5038012;28;20050;-69
2022/04/10 00:25:50;;;;;;;2.10;0.55;;;16.20;44.00;15.30;101203.00;;;;5042539;28;20079;-69
2022/04/10 00:28:36;;;;;;;2.33;0.98;;;16.20;44.00;15.30;101209.00;;;;5037501;28;20035;-69
2022/04/10 00:31:22;;;;;;;1.08;0.50;;;16.20;44.00;15.30;101205.00;;;;5046482;28;20065;-69
2022/04/10 00:34:08;;;;;;;2.72;0.60;;;16.20;43.90;15.30;101211.00;;;;5045189;28;20463;-69
2022/04/10 00:36:54;;;;;;;2.33;0.60;;;16.20;43.90;15.30;101214.00;;;;5043650;28;20527;-69
2022/04/10 00:39:40;;;;;;;2.65;0.63;;;16.20;43.80;15.30;101210.00;;;;5043823;28;20044;-69
2022/04/10 00:42:33;;;;;;;3.13;0.70;;;16.20;43.80;15.30;101209.00;;;;5038644;28;20106;-69
2022/04/10 00:45:22;;;;;;;2.25;0.82;;;16.20;43.80;15.30;101217.00;;;;5042434;28;20045;-69
2022/04/10 00:48:08;;;;;;;1.33;0.52;;;16.20;43.80;15.30;101218.00;;;;5028267;28;20485;-69
2022/04/10 00:53:59;;;;;;;1.80;0.60;;;16.20;43.80;15.30;101217.00;;;;5039024;28;20272;-69
2022/04/10 00:56:45;;;;;;;1.85;0.60;;;16.20;43.70;15.30;101226.00;;;;5043289;28;20052;-69
2022/04/10 00:59:31;;;;;;;1.45;0.70;;;16.20;43.80;15.30;101217.00;;;;5057129;28;20091;-69
2022/04/10 01:02:17;;;;;;;1.55;0.60;;;16.20;43.80;15.30;101219.00;;;;5047966;28;20518;-69
2022/04/10 01:05:05;;;;;;;2.70;0.63;;;16.20;43.80;15.30;101213.00;;;;5036137;28;20057;-69
2022/04/10 01:07:51;;;;;;;3.55;0.80;;;16.20;43.80;15.30;101213.00;;;;5031420;28;20037;-69
2022/04/10 01:10:37;;;;;;;3.00;0.73;;;16.20;43.80;15.30;101225.00;;;;5039976;28;20035;-69
2022/04/10 01:13:23;;;;;;;2.50;0.80;;;16.20;43.80;15.30;101217.00;;;;5035916;28;20068;-69
2022/04/10 01:16:09;;;;;;;5.25;1.00;;;16.20;44.30;15.30;101227.00;;;;5030374;28;20086;-69
2022/04/10 01:18:55;;;;;;;2.63;0.70;;;16.20;43.80;15.30;101216.00;;;;5032480;28;20048;-69
2022/04/10 01:21:44;;;;;;;1.05;0.60;;;16.20;43.80;15.30;101217.00;;;;5016599;28;20033;-69
2022/04/10 01:24:30;;;;;;;2.90;0.60;;;16.20;43.80;15.30;101219.00;;;;5037589;28;20200;-69
2022/04/10 01:27:16;;;;;;;2.00;0.60;;;16.20;43.80;15.30;101223.00;;;;5040360;28;20033;-69
2022/04/10 01:30:04;;;;;;;1.63;0.80;;;16.20;43.80;15.30;101222.00;;;;5038406;28;20033;-69
2022/04/10 01:32:50;;;;;;;;;;;16.20;43.80;15.30;101225.00;;;;5028002;28;20037;-69
2022/04/10 01:35:37;;;;;;;1.95;0.80;;;16.20;44.00;15.20;101230.00;;;;5041316;28;19912;-69
2022/04/10 01:38:23;;;;;;;2.85;0.80;;;16.20;43.70;15.20;101223.00;;;;5036350;28;20060;-69
2022/04/10 01:41:13;;;;;;;1.98;0.63;;;16.20;43.70;15.30;101222.00;;;;5038145;28;20056;-69
2022/04/10 01:43:59;;;;;;;1.95;0.63;;;16.20;43.70;15.30;101214.00;;;;5040705;28;20143;-69
2022/04/10 01:46:45;;;;;;;1.48;0.60;;;16.20;43.70;15.30;101215.00;;;;5039698;28;20045;-69
2022/04/10 01:49:31;;;;;;;2.83;0.68;;;16.20;43.70;15.30;101209.00;;;;5044641;28;20053;-69
2022/04/10 01:52:17;;;;;;;1.65;0.70;;;16.20;43.70;15.20;101222.00;;;;5040955;28;20070;-69
2022/04/10 01:55:04;;;;;;;1.90;0.75;;;16.20;43.70;15.20;101215.00;;;;5043182;28;20037;-69
2022/04/10 01:57:50;;;;;;;3.58;0.70;;;16.10;43.50;15.20;101224.00;;;;5040071;28;20041;-69
2022/04/10 02:00:36;;;;;;;1.40;0.60;;;16.10;43.50;15.20;101222.00;;;;5045594;28;20375;-69
2022/04/10 02:03:22;;;;;;;2.38;0.85;;;16.10;43.60;15.20;101217.00;;;;5043953;28;20482;-69
2022/04/10 02:06:10;;;;;;;2.22;0.70;;;16.10;43.60;15.20;101223.00;;;;5054538;28;20041;-69
2022/04/10 02:08:56;;;;;;;2.45;0.85;;;16.10;43.60;15.20;101227.00;;;;5047938;28;20464;-69
2022/04/10 02:11:42;;;;;;;2.08;1.05;;;16.10;43.60;15.20;101225.00;;;;5058491;28;20048;-69
2022/04/10 02:14:28;;;;;;;3.97;0.95;;;16.10;43.60;15.20;101230.00;;;;5049036;28;20044;-69
2022/04/10 02:17:14;;;;;;;2.88;0.80;;;16.10;43.60;15.20;101230.00;;;;5061653;28;20045;-69
2022/04/10 02:20:00;;;;;;;1.25;0.60;;;16.10;43.50;15.20;101224.00;;;;5061494;28;20096;-69
2022/04/10 02:22:46;;;;;;;3.92;1.05;;;16.10;43.50;15.20;101226.00;;;;5044714;28;20047;-69
2022/04/10 02:25:33;;;;;;;1.85;0.80;;;16.10;43.60;15.20;101222.00;;;;5056384;28;20049;-69
2022/04/10 02:28:19;;;;;;;3.03;0.82;;;16.10;43.60;15.20;101223.00;;;;5055619;28;20140;-69
2022/04/10 02:31:05;;;;;;;3.50;0.85;;;16.10;43.60;15.20;101225.00;;;;5058744;28;20044;-69
2022/04/10 02:33:51;;;;;;;1.63;0.90;;;16.10;43.60;15.20;101227.00;;;;5061252;28;20120;-69
2022/04/10 02:36:38;;;;;;;2.53;0.88;;;16.10;43.60;15.20;101225.00;;;;5048124;28;20047;-69
2022/04/10 02:39:24;;;;;;;2.10;0.88;;;16.10;43.60;15.20;101222.00;;;;5052937;28;20490;-69
2022/04/10 02:42:10;;;;;;;2.80;0.93;;;16.20;43.60;15.20;101231.00;;;;5054028;28;20043;-69
2022/04/10 02:44:56;;;;;;;2.60;0.70;;;16.10;43.60;15.20;101223.00;;;;5053975;28;20043;-69
2022/04/10 02:47:42;;;;;;;2.17;0.80;;;16.10;43.50;15.20;101228.00;;;;5055523;28;20116;-69
2022/04/10 02:50:28;;;;;;;2.92;0.73;;;16.10;43.50;15.20;101232.00;;;;5056334;28;20045;-69
2022/04/10 02:53:15;;;;;;;2.50;0.82;;;16.10;43.60;15.20;101235.00;;;;5052036;28;20045;-69
2022/04/10 02:56:01;;;;;;;4.40;0.90;;;16.10;43.60;15.20;101243.00;;;;5054185;28;20043;-69
2022/04/10 02:58:47;;;;;;;2.65;0.85;;;16.10;43.60;15.20;101240.00;;;;5056757;28;20474;-69
2022/04/10 03:01:33;;;;;;;2.55;0.77;;;16.10;43.60;15.20;101240.00;;;;5055223;28;20052;-69
2022/04/10 03:04:19;;;;;;;3.08;0.82;;;16.10;43.60;15.20;101243.00;;;;5052978;28;20041;-69
2022/04/10 03:07:05;;;;;;;3.33;0.77;;;16.10;43.60;15.20;101244.00;;;;5054033;28;20497;-69
2022/04/10 03:09:51;;;;;;;1.67;0.90;;;16.10;43.60;15.20;101248.00;;;;5059954;28;20094;-69
2022/04/10 03:12:37;;;;;;;2.83;0.73;;;16.10;43.60;15.20;101250.00;;;;5053454;28;20043;-69
2022/04/10 03:15:23;;;;;;;3.22;1.05;;;16.10;43.60;15.20;101253.00;;;;5052005;28;20059;-69
2022/04/10 03:18:09;;;;;;;4.13;0.82;;;16.10;43.50;15.20;101254.00;;;;5051316;28;20049;-69
2022/04/10 03:20:55;;;;;;;4.05;0.88;;;16.10;43.50;15.20;101257.00;;;;5061309;28;20040;-69
2022/04/10 03:23:41;;;;;;;2.83;0.95;;;16.10;44.20;15.20;101263.00;;;;5055470;28;20052;-69
2022/04/10 03:26:28;;;;;;;2.25;0.80;;;16.10;43.40;15.20;101258.00;;;;5057732;28;20052;-69
2022/04/10 03:29:14;;;;;;;5.45;1.20;;;16.20;43.50;15.20;101255.00;;;;5041820;28;20041;-69
2022/04/10 03:32:00;;;;;;;2.30;0.88;;;16.10;43.50;15.20;101269.00;;;;5054981;28;20037;-69
2022/04/10 03:34:46;;;;;;;3.70;0.82;;;16.20;43.50;15.20;101269.00;;;;5059925;28;20466;-69
2022/04/10 03:37:32;;;;;;;3.05;0.98;;;16.10;43.40;15.20;101270.00;;;;5057827;28;20052;-69
2022/04/10 03:40:18;;;;;;;1.83;0.80;;;16.10;43.20;15.20;101283.00;;;;5059778;28;20044;-69
2022/04/10 03:43:04;;;;;;;2.42;0.77;;;16.10;43.40;15.20;101280.00;;;;5059235;28;20052;-69
2022/04/10 03:45:51;;;;;;;3.30;1.15;;;16.10;43.40;15.20;101272.00;;;;5053484;28;20032;-69
2022/04/10 03:48:37;;;;;;;3.20;1.27;;;16.10;43.40;15.20;101285.00;;;;5062928;28;20337;-69
2022/04/10 03:51:23;;;;;;;4.05;1.00;;;16.10;43.30;15.20;101289.00;;;;5057572;28;20044;-69
2022/04/10 03:54:09;;;;;;;3.13;1.08;;;16.10;43.20;15.20;101279.00;;;;5061023;28;20036;-69
2022/04/10 03:56:55;;;;;;;3.90;1.25;;;16.10;43.20;15.20;101297.00;;;;5052793;28;20403;-69
2022/04/10 03:59:41;;;;;;;3.03;0.93;;;16.10;43.10;15.10;101295.00;;;;5061071;28;20040;-69
2022/04/10 04:02:27;;;;;;;2.42;0.70;;;16.00;43.10;15.10;101289.00;;;;5047170;28;20131;-69
2022/04/10 04:05:13;;;;;;;5.05;1.10;;;16.00;43.10;15.10;101290.00;;;;5055029;28;20049;-69
2022/04/10 04:08:01;;;;;;;3.03;1.10;;;16.00;43.00;15.10;101292.00;;;;5042610;28;20565;-69
2022/04/10 04:10:47;;;;;;;4.30;1.00;;;16.00;43.20;15.10;101305.00;;;;5052695;28;20033;-69
2022/04/10 04:13:38;;;;;;;7.78;1.52;;;16.00;43.30;15.10;101299.00;;;;5058840;28;20036;-69
2022/04/10 04:16:24;;;;;;;2.45;0.90;;;16.00;43.30;15.10;101306.00;;;;5058548;28;20173;-69
2022/04/10 04:19:10;;;;;;;2.42;1.02;;;16.00;43.30;15.10;101308.00;;;;5056046;28;20040;-69
2022/04/10 04:21:56;;;;;;;4.57;0.82;;;16.00;43.40;15.10;101319.00;;;;5060770;28;20080;-69
2022/04/10 04:24:42;;;;;;;5.88;1.00;;;16.00;43.40;15.10;101320.00;;;;5060374;28;20058;-69
2022/04/10 04:27:28;;;;;;;4.72;1.30;;;16.00;43.40;15.10;101316.00;;;;5063015;28;20232;-69
2022/04/10 04:30:15;;;;;;;1.83;0.77;;;16.00;44.00;15.10;101321.00;;;;5063946;28;20102;-69
2022/04/10 04:33:01;;;;;;;2.83;0.93;;;16.00;43.40;15.10;101338.00;;;;5060450;28;20347;-69
2022/04/10 04:35:47;;;;;;;5.50;1.08;;;16.00;43.40;15.10;101331.00;;;;5058801;28;20044;-69
2022/04/10 04:38:33;;;;;;;6.75;1.10;;;16.00;43.40;15.10;101340.00;;;;5058060;28;20421;-69
2022/04/10 04:41:19;;;;;;;3.88;1.10;;;16.00;43.30;15.10;101339.00;;;;5060896;28;20110;-69
2022/04/10 04:44:05;;;;;;;2.38;0.85;;;16.00;43.30;15.10;101346.00;;;;5057178;28;20044;-69
2022/04/10 04:46:55;;;;;;;3.22;0.90;;;16.00;43.00;15.10;101332.00;;;;5058058;28;20055;-69
2022/04/10 04:49:41;;;;;;;3.35;0.90;;;16.10;43.00;15.10;101343.00;;;;5059931;28;20528;-69
2022/04/10 04:52:27;;;;;;;2.17;0.77;;;16.00;42.90;15.10;101355.00;;;;5056626;28;20449;-69
2022/04/10 04:55:13;;;;;;;5.85;0.98;;;16.00;43.10;15.10;101356.00;;;;5058181;28;20037;-69
2022/04/10 04:57:59;;;;;;;2.72;0.75;;;16.00;43.10;15.10;101357.00;;;;5048446;28;20373;-69
2022/04/10 05:00:47;;;;;;;4.85;1.00;;;16.00;43.20;15.10;101346.00;;;;5058756;28;20052;-69
2022/04/10 05:03:33;;;;;;;3.90;0.95;;;16.00;43.30;15.10;101356.00;;;;5062517;28;20044;-69
2022/04/10 05:06:19;;;;;;;4.25;1.40;;;15.90;43.20;15.10;101358.00;;;;5054064;28;20041;-69
2022/04/10 05:09:05;;;;;;;4.10;0.93;;;16.00;43.20;15.10;101366.00;;;;5052431;28;20053;-69
2022/04/10 05:11:51;;;;;;;3.40;0.93;;;16.00;43.30;15.10;101367.00;;;;5042021;28;20387;-69
2022/04/10 05:14:38;;;;;;;2.50;0.98;;;16.00;43.20;15.10;101368.00;;;;5062331;28;20044;-69
2022/04/10 05:17:26;;;;;;;4.15;0.80;;;16.00;43.30;15.10;101362.00;;;;5057693;28;20036;-69
2022/04/10 05:20:12;;;;;;;3.38;1.00;;;15.90;43.20;15.10;101370.00;;;;5053476;28;20044;-69
2022/04/10 05:22:58;;;;;;;2.90;0.80;;;15.90;43.10;15.10;101372.00;;;;5043222;28;20037;-69
2022/04/10 05:25:44;;;;;;;4.68;0.93;;;15.90;43.00;15.10;101373.00;;;;5059176;28;20033;-69
2022/04/10 05:28:31;;;;;;;4.88;0.98;;;16.00;43.10;15.10;101373.00;;;;5060678;28;20036;-69
2022/04/10 05:31:17;;;;;;;2.03;0.73;;;15.90;43.00;15.00;101370.00;;;;5053711;28;20086;-69
2022/04/10 05:34:03;;;;;;;3.33;1.23;;;15.90;42.90;15.00;101373.00;;;;5054659;28;20071;-69
2022/04/10 05:36:49;;;;;;;3.53;0.98;;;15.90;43.00;15.00;101380.00;;;;5061722;28;20043;-69
2022/04/10 05:39:35;;;;;;;4.50;0.98;;;16.00;43.10;15.00;101386.00;;;;5061343;28;20125;-69
2022/04/10 05:42:21;;;;;;;2.35;0.82;;;15.90;43.10;15.00;101390.00;;;;5061676;28;20379;-69
2022/04/10 05:45:08;;;;;;;3.28;1.38;;;15.90;43.80;15.00;101392.00;;;;5057190;28;20041;-69
2022/04/10 05:47:54;;;;;;;2.90;1.05;;;15.90;43.20;15.00;101398.00;;;;5059663;28;20386;-69
2022/04/10 05:50:40;;;;;;;2.90;1.02;;;16.00;43.20;15.00;101389.00;;;;5057657;28;20040;-69
2022/04/10 05:53:26;;;;;;;4.40;0.98;;;15.90;43.20;15.10;101399.00;;;;5053978;28;20044;-69
2022/04/10 05:56:12;;;;;;;3.40;0.90;;;15.90;43.00;15.00;101408.00;;;;5046073;28;20040;-69
2022/04/10 05:58:58;;;;;;;2.60;1.10;;;16.00;43.30;15.10;101416.00;;;;5060087;28;20493;-69
2022/04/10 06:01:44;;;;;;;5.57;1.40;;;15.90;43.20;15.10;101425.00;;;;5057209;28;20046;-69
2022/04/10 06:04:30;;;;;;;3.42;1.02;;;16.00;43.20;15.10;101429.00;;;;5055534;28;20056;-69
2022/04/10 06:07:16;;;;;;;3.33;1.10;;;16.00;43.10;15.10;101418.00;;;;5057887;28;20505;-69
2022/04/10 06:10:02;;;;;;;3.58;0.75;;;16.00;43.20;15.10;101420.00;;;;5055802;28;20033;-69
2022/04/10 06:12:48;;;;;;;2.42;0.90;;;16.00;43.30;15.10;101430.00;;;;5062754;28;20040;-69
2022/04/10 06:15:34;;;;;;;2.08;0.63;;;16.00;43.30;15.10;101432.00;;;;5059044;28;20036;-69
2022/04/10 06:18:20;;;;;;;2.10;0.75;;;16.00;43.20;15.10;101444.00;;;;5061957;28;20040;-69
2022/04/10 06:21:06;;;;;;;2.80;1.17;;;16.00;43.20;15.10;101439.00;;;;5061741;28;20040;-69
2022/04/10 06:23:53;;;;;;;4.57;0.98;;;16.00;43.20;15.10;101445.00;;;;5058633;28;20452;-69
2022/04/10 06:26:40;;;;;;;4.05;1.33;;;16.00;43.20;15.10;101456.00;;;;5057568;28;20040;-69
2022/04/10 06:29:27;;;;;;;3.22;0.77;;;16.00;43.30;15.10;101438.00;;;;5058431;28;20041;-69
2022/04/10 06:32:13;;;;;;;3.45;0.93;;;16.00;43.20;15.10;101438.00;;;;5059525;28;20315;-69
2022/04/10 06:34:59;;;;;;;2.83;0.73;;;16.00;43.30;15.10;101435.00;;;;5052961;28;20037;-69
2022/04/10 06:37:45;;;;;;;3.28;0.85;;;16.00;43.30;15.10;101443.00;;;;5059170;28;20036;-69
2022/04/10 06:40:31;;;;;;;2.35;0.90;;;16.00;43.30;15.10;101459.00;;;;5055003;28;20037;-69
2022/04/10 06:43:19;;;;;;;2.70;0.85;;;16.00;43.20;15.10;101455.00;;;;5054572;28;20114;-69
2022/04/10 06:46:06;;;;;;;2.42;0.75;;;16.00;43.30;15.10;101457.00;;;;5056819;28;20486;-69
2022/04/10 06:48:55;;;;;;;2.83;1.00;;;16.00;43.20;15.10;101455.00;;;;5052094;28;20565;-69
2022/04/10 06:51:41;;;;;;;3.38;0.90;;;16.00;43.30;15.10;101462.00;;;;5058941;28;20032;-69
2022/04/10 06:54:27;;;;;;;2.33;0.90;;;16.00;43.30;15.10;101469.00;;;;5057564;28;20051;-69
2022/04/10 06:57:14;;;;;;;4.85;0.82;;;16.00;43.20;15.10;101470.00;;;;5056051;28;20048;-69
2022/04/10 07:00:00;;;;;;;4.28;0.88;;;16.00;43.30;15.10;101472.00;;;;5056201;28;20048;-69
2022/04/10 07:02:46;;;;;;;1.48;0.50;;;16.00;43.30;15.10;101477.00;;;;5061892;28;20044;-69
2022/04/10 07:05:32;;;;;;;1.98;0.80;;;16.00;43.40;15.10;101489.00;;;;5063310;28;20056;-69
2022/04/10 07:08:18;;;;;;;4.40;1.10;;;16.00;43.40;15.10;101489.00;;;;5052153;28;20049;-69
2022/04/10 07:11:04;;;;;;;2.83;0.60;;;16.00;43.40;15.10;101487.00;;;;5060098;28;20044;-69
2022/04/10 07:13:50;;;;;;;3.83;0.90;;;16.00;43.40;15.10;101491.00;;;;5057352;28;20039;-69
2022/04/10 07:16:36;;;;;;;2.13;0.75;;;16.00;43.30;15.10;101485.00;;;;5047167;28;20032;-69
2022/04/10 07:19:22;;;;;;;1.17;0.70;;;16.00;43.20;15.10;101486.00;;;;5058059;28;20044;-69
2022/04/10 07:25:13;;;;;;;3.03;0.70;;;16.00;43.40;15.10;101489.00;;;;5055199;28;20056;-69
2022/04/10 07:27:59;;;;;;;3.83;1.08;;;16.00;43.30;15.10;101491.00;;;;5057047;28;20059;-69
2022/04/10 07:30:45;;;;;;;0.98;0.65;;;16.00;43.40;15.10;101493.00;;;;5043495;28;20043;-69
2022/04/10 07:33:32;;;;;;;4.85;1.00;;;16.00;43.50;15.10;101493.00;;;;5053582;28;20084;-69
2022/04/10 07:36:18;;;;;;;1.33;0.70;;;16.00;43.50;15.10;101499.00;;;;5056134;28;20041;-69
2022/04/10 07:39:04;;;;;;;3.20;0.60;;;16.00;43.60;15.10;101504.00;;;;5048834;28;20044;-69
2022/04/10 07:41:50;;;;;;;2.58;0.77;;;15.90;43.60;15.10;101504.00;;;;5050266;28;20453;-69
2022/04/10 07:44:36;;;;;;;1.45;0.80;;;16.00;43.60;15.10;101509.00;;;;5052556;28;20534;-69
2022/04/10 07:47:25;;;;;;;1.85;0.75;;;16.00;43.60;15.10;101515.00;;;;5050370;28;20048;-69
2022/04/10 07:50:11;;;;;;;2.13;0.40;;;16.00;43.60;15.10;101505.00;;;;5059517;28;20048;-69
2022/04/10 07:52:57;;;;;;;1.98;0.93;;;16.00;43.60;15.10;101509.00;;;;5060362;28;20101;-69
2022/04/10 07:55:43;;;;;;;2.72;0.90;;;16.00;43.60;15.10;101507.00;;;;5055995;28;20053;-69
2022/04/10 07:58:29;;;;;;;2.50;0.88;;;16.00;43.60;15.10;101504.00;;;;5058157;28;20123;-69
2022/04/10 08:01:15;;;;;;;4.90;0.70;;;16.00;43.60;15.10;101515.00;;;;5057110;28;20067;-69
2022/04/10 08:04:01;;;;;;;2.88;0.80;;;16.00;43.70;15.10;101516.00;;;;5051459;28;20284;-69
2022/04/10 08:06:47;;;;;;;1.83;0.68;;;16.00;43.70;15.10;101525.00;;;;5057460;28;20044;-70
2022/04/10 08:09:34;;;;;;;2.83;0.77;;;16.00;43.70;15.10;101511.00;;;;5046309;28;20052;-69
2022/04/10 08:12:20;;;;;;;2.00;0.85;;;16.00;43.70;15.10;101514.00;;;;5059819;28;20139;-69
2022/04/10 08:15:07;;;;;;;0.90;0.50;;;16.00;43.50;15.10;101526.00;;;;5058559;28;20195;-69
2022/04/10 08:17:54;;;;;;;4.15;0.80;;;16.10;43.70;15.10;101542.00;;;;5039937;28;20076;-69
2022/04/10 08:20:40;;;;;;;4.90;0.68;;;16.00;43.60;15.10;101541.00;;;;5059229;28;20048;-69
2022/04/10 08:23:26;;;;;;;6.43;0.82;;;16.00;43.60;15.10;101541.00;;;;5056177;28;20056;-69
2022/04/10 08:26:12;;;;;;;4.95;1.00;;;16.00;43.60;15.10;101533.00;;;;5055250;28;20045;-69
2022/04/10 08:28:58;;;;;;;3.15;0.80;;;16.00;43.70;15.10;101546.00;;;;5058222;28;20063;-69
2022/04/10 08:31:44;;;;;;;2.40;0.68;;;16.00;43.70;15.10;101543.00;;;;5053102;28;20442;-69
2022/04/10 08:34:30;;;;;;;2.22;0.75;;;16.00;43.70;15.10;101544.00;;;;5052369;28;20117;-69
2022/04/10 08:37:16;;;;;;;1.27;0.43;;;16.00;43.80;15.10;101552.00;;;;5050962;28;20076;-70
2022/04/10 08:40:05;;;;;;;1.98;0.63;;;16.00;43.70;15.10;101563.00;;;;5041076;28;20421;-70
2022/04/10 08:42:53;;;;;;;0.57;0.30;;;16.00;43.70;15.10;101568.00;;;;5038668;28;20406;-70
2022/04/10 08:45:39;;;;;;;7.95;1.15;;;16.00;43.80;15.10;101576.00;;;;5052631;28;20128;-70
2022/04/10 08:48:28;;;;;;;3.40;0.98;;;16.00;43.90;15.10;101574.00;;;;5058713;28;20067;-70
2022/04/10 08:51:14;;;;;;;0.93;0.32;;;16.00;43.80;15.10;101566.00;;;;5043763;28;20080;-70
2022/04/10 08:54:02;;;;;;;1.50;0.40;;;16.00;43.90;15.10;101567.00;;;;5029597;28;20487;-70
2022/04/10 08:56:50;;;;;;;2.33;0.75;;;16.00;43.90;15.10;101574.00;;;;5051780;28;20455;-69
2022/04/10 08:59:58;;;;;;;1.65;0.77;;;16.00;43.80;15.10;101573.00;;;;5059892;28;20085;-70
2022/04/10 09:02:51;;;;;;;4.10;0.80;;;16.10;43.80;15.10;101573.00;;;;5056283;28;20040;-69
2022/04/10 09:05:42;;;;;;;4.53;0.70;;;16.10;43.90;15.10;101583.00;;;;5058134;28;20113;-70
2022/04/10 09:08:28;;;;;;;5.68;0.88;;;16.00;43.90;15.10;101576.00;;;;5053502;28;20395;-69
2022/04/10 09:11:15;;;;;;;6.78;1.10;;;16.00;43.90;15.10;101572.00;;;;5053106;28;20057;-69
2022/04/10 09:14:01;;;;;;;7.78;1.20;;;16.10;44.20;15.10;101574.00;;;;5053790;28;20106;-69
2022/04/10 09:16:47;;;;;;;6.75;1.25;;;16.00;44.10;15.10;101582.00;;;;5054554;28;20047;-69
2022/04/10 09:19:57;;;;;;;9.32;1.05;;;16.10;44.20;15.20;101578.00;;;;5038169;28;20102;-69
2022/04/10 09:22:44;;;;;;;5.45;1.05;;;16.10;44.20;15.20;101581.00;;;;5041597;28;20040;-69
2022/04/10 09:25:30;;;;;;;9.35;1.00;;;16.10;43.90;15.20;101580.00;;;;5052488;28;20045;-70
2022/04/10 09:28:16;;;;;;;6.80;0.90;;;16.10;43.90;15.20;101578.00;;;;5058980;28;20059;-69
2022/04/10 09:31:02;;;;;;;9.30;1.10;;;16.10;44.00;15.20;101576.00;;;;5056976;28;20044;-69
2022/04/10 09:33:49;;;;;;;5.55;0.80;;;16.10;44.00;15.20;101589.00;;;;5050246;28;20207;-69
2022/04/10 09:36:40;;;;;;;4.10;0.60;;;16.10;44.00;15.20;101580.00;;;;5058306;28;20033;-69
2022/04/10 09:39:36;;;;;;;5.07;1.27;;;16.10;44.00;15.20;101573.00;;;;5041721;28;20044;-70
2022/04/10 09:42:30;;;;;;;1.80;0.57;;;16.10;44.00;15.20;101575.00;;;;5055245;28;20224;-70
2022/04/10 09:45:38;;;;;;;2.60;0.60;;;16.20;44.10;15.20;101577.00;;;;5050932;28;20391;-70
2022/04/10 09:48:29;;;;;;;3.92;0.70;;;16.20;44.10;15.20;101559.00;;;;5049492;28;20033;-70
2022/04/10 09:51:15;;;;;;;2.88;0.60;;;16.20;44.10;15.20;101568.00;;;;5055134;28;20051;-69
2022/04/10 09:54:04;;;;;;;5.45;0.65;;;16.20;44.20;15.30;101570.00;;;;5056926;28;20504;-70
2022/04/10 09:56:50;;;;;;;3.28;0.43;;;16.20;44.10;15.30;101570.00;;;;5056169;28;20279;-72
2022/04/10 09:59:42;;;;;;;3.70;0.90;;;16.20;44.10;15.30;101574.00;;;;5050869;28;20394;-71
2022/04/10 10:02:28;;;;;;;10.15;0.90;;;16.30;44.10;15.30;101571.00;;;;5049657;28;20041;-70
2022/04/10 10:05:14;;;;;;;1.95;0.40;;;16.30;44.00;15.30;101591.00;;;;5027632;28;20036;-69
2022/04/10 10:08:01;;;;;;;4.90;0.90;;;16.30;44.00;15.30;101578.00;;;;5052249;28;20405;-69
2022/04/10 10:10:47;;;;;;;3.25;0.63;;;16.30;44.70;15.30;101602.00;;;;5038519;28;20489;-69
2022/04/10 10:13:33;;;;;;;3.83;0.60;;;16.30;43.90;15.30;101619.00;;;;5054066;28;20040;-69
2022/04/10 10:16:19;;;;;;;4.22;0.60;;;16.40;44.00;15.40;101622.00;;;;5034490;28;20055;-69
2022/04/10 10:19:05;;;;;;;4.88;1.25;;;16.40;44.00;15.40;101603.00;;;;5052191;28;20588;-69
2022/04/10 10:21:52;;;;;;;0.90;0.40;;;16.40;44.00;15.40;101606.00;;;;5046992;28;20072;-69
2022/04/10 10:24:57;;;;;;;4.80;0.80;;;16.40;44.00;15.40;101602.00;;;;5051937;28;20048;-69
2022/04/10 10:28:21;;;;;;;3.47;0.50;;;16.40;43.90;15.40;101595.00;;;;5043533;28;20055;-69
2022/04/10 10:31:47;;;;;;;2.58;0.68;;;16.40;44.00;15.40;101599.00;;;;5047065;28;20584;-69
2022/04/10 10:34:34;;;;;;;1.20;0.50;;;16.50;43.90;15.40;101591.00;;;;5038339;28;20040;-69
2022/04/10 10:37:28;;;;;;;0.82;0.40;;;16.40;43.90;15.40;101588.00;;;;5053255;28;20127;-69
2022/04/10 10:40:17;;;;;;;1.63;0.68;;;16.40;43.90;15.40;101582.00;;;;5047082;28;20529;-69
2022/04/10 10:43:04;;;;;;;0.70;0.40;;;16.40;44.00;15.40;101586.00;;;;5047126;28;20410;-69
2022/04/10 10:45:52;;;;;;;1.00;0.30;;;16.40;44.00;15.40;101582.00;;;;5047918;28;20051;-69
2022/04/10 10:48:38;;;;;;;1.98;0.80;;;16.40;44.00;15.40;101580.00;;;;5055204;28;20064;-69
2022/04/10 10:51:25;;;;;;;1.02;0.55;;;16.40;43.90;15.40;101586.00;;;;5059339;28;20040;-69
2022/04/10 10:54:18;;;;;;;2.42;0.60;;;16.50;43.90;15.40;101573.00;;;;5058240;28;20653;-69
2022/04/10 10:57:41;;;;;;;2.08;0.70;;;16.40;43.80;15.40;101582.00;;;;5044579;28;20041;-70
2022/04/10 11:00:27;;;;;;;2.15;0.50;;;16.40;43.80;15.40;101584.00;;;;5048839;28;20045;-69
2022/04/10 11:03:14;;;;;;;1.58;0.45;;;16.40;44.40;15.40;101583.00;;;;5017191;28;20041;-69
2022/04/10 11:06:06;;;;;;;1.60;0.40;;;16.40;43.80;15.40;101590.00;;;;5057529;28;20052;-70
2022/04/10 11:08:52;;;;;;;1.50;0.47;;;16.40;43.80;15.40;101596.00;;;;5052146;28;20044;-69
2022/04/10 11:11:39;;;;;;;1.00;0.40;;;16.40;44.00;15.40;101602.00;;;;5044773;28;20055;-70
2022/04/10 11:14:36;;;;;;;2.90;0.50;;;16.40;43.70;15.30;101612.00;;;;5050665;28;20043;-70
2022/04/10 11:17:32;;;;;;;1.13;0.40;;;16.40;43.70;15.30;101615.00;;;;5051471;28;20257;-70
2022/04/10 11:20:22;;;;;;;1.63;0.38;;;16.40;43.80;15.30;101615.00;;;;5031002;28;20044;-69
2022/04/10 11:23:08;;;;;;;1.20;0.30;;;16.30;43.90;15.30;101604.00;;;;5048827;28;20070;-69
2022/04/10 11:25:54;;;;;;;0.82;0.30;;;16.30;43.90;15.30;101612.00;;;;5041841;28;20470;-69
2022/04/10 11:29:03;;;;;;;1.85;0.38;;;16.30;44.00;15.30;101612.00;;;;5060252;28;20356;-69
2022/04/10 11:31:53;;;;;;;1.13;0.45;;;16.30;44.10;15.30;101615.00;;;;5056814;28;20044;-69
2022/04/10 11:34:42;;;;;;;2.25;0.82;;;16.30;44.10;15.30;101620.00;;;;5059010;28;20041;-69
2022/04/10 11:37:37;;;;;;;4.90;0.65;;;16.30;44.20;15.30;101613.00;;;;5060122;28;20080;-69
2022/04/10 11:40:30;;;;;;;3.47;1.05;;;16.30;44.20;15.30;101605.00;;;;5057473;28;20044;-69
2022/04/10 11:43:19;;;;;;;1.55;0.50;;;16.30;44.30;15.30;101616.00;;;;5055062;28;20406;-69
2022/04/10 11:46:06;;;;;;;6.68;1.08;;;16.30;44.40;15.30;101612.00;;;;5051737;28;20040;-69
2022/04/10 11:48:52;;;;;;;6.35;0.75;;;16.30;44.50;15.40;101617.00;;;;5057399;28;20066;-69
2022/04/10 11:51:57;;;;;;;3.88;1.05;;;16.30;44.40;15.40;101607.00;;;;5049077;28;20032;-69
2022/04/10 11:54:43;;;;;;;5.10;0.85;;;16.30;44.50;15.40;101614.00;;;;5058447;28;20045;-69
2022/04/10 11:57:29;;;;;;;6.20;1.13;;;16.30;44.50;15.40;101602.00;;;;5059320;28;20067;-69
2022/04/10 12:00:16;;;;;;;7.22;0.95;;;16.40;44.70;15.40;101601.00;;;;5055168;28;20045;-69
2022/04/10 12:03:02;;;;;;;7.07;1.00;;;16.40;44.60;15.50;101594.00;;;;5056518;28;20036;-69
2022/04/10 12:05:48;;;;;;;16.25;1.63;;;16.40;44.60;15.50;101607.00;;;;5063537;28;20037;-69
2022/04/10 12:08:34;;;;;;;1.85;0.60;;;16.40;44.60;15.40;101606.00;;;;5041709;28;20037;-69
2022/04/10 12:11:20;;;;;;;6.00;0.50;;;16.40;44.20;15.40;101597.00;;;;5060599;28;20041;-69
2022/04/10 12:14:23;;;;;;;11.93;1.15;;;16.40;43.80;15.30;101599.00;;;;5053450;28;20037;-69
2022/04/10 12:17:12;;;;;;;3.83;0.75;;;16.40;43.40;15.20;101605.00;;;;5062226;28;20036;-69
2022/04/10 12:19:59;;;;;;;4.80;0.90;;;16.40;43.40;15.20;101608.00;;;;5041432;28;20045;-69
2022/04/10 12:22:45;;;;;;;4.28;0.73;;;16.40;43.00;15.10;101615.00;;;;5058373;28;20098;-69